sensor_id;sensor_type;location;lat;lon;timestamp;P1;durP1;ratioP1;P2;durP2;ratioP2
36443;SDS011;24692;45.642;13.806;2023-04-24T00:00:02;6.00;;;4.90;;
36443;SDS011;24692;45.642;13.806;2023-04-24T00:02:32;9.53;;;5.47;;
36443;SDS011;24692;45.642;13.806;2023-04-24T00:04:59;6.97;;;4.90;;
36443;SDS011;24692;45.642;13.806;2023-04-24T00:07:30;7.87;;;5.47;;
36443;SDS011;24692;45.642;13.806;2023-04-24T00:09:56;12.57;;;5.70;;
36443;SDS011;24692;45.642;13.806;2023-04-24T00:12:22;7.37;;;4.97;;
36443;SDS011;24692;45.642;13.806;2023-04-24T00:14:48;7.17;;;5.50;;
36443;SDS011;24692;45.642;13.806;2023-04-24T00:17:14;7.10;;;5.50;;
36443;SDS011;24692;45.642;13.806;2023-04-24T00:19:40;6.73;;;5.60;;
36443;SDS011;24692;45.642;13.806;2023-04-24T00:22:05;10.03;;;5.77;;
36443;SDS011;24692;45.642;13.806;2023-04-24T00:24:31;6.03;;;5.13;;
36443;SDS011;24692;45.642;13.806;2023-04-24T00:26:58;8.73;;;5.43;;
36443;SDS011;24692;45.642;13.806;2023-04-24T00:29:24;9.20;;;5.97;;
36443;SDS011;24692;45.642;13.806;2023-04-24T00:31:49;9.73;;;5.57;;
36443;SDS011;24692;45.642;13.806;2023-04-24T00:34:15;10.33;;;5.60;;
36443;SDS011;24692;45.642;13.806;2023-04-24T00:36:41;9.93;;;6.00;;
36443;SDS011;24692;45.642;13.806;2023-04-24T00:39:07;10.83;;;5.93;;
36443;SDS011;24692;45.642;13.806;2023-04-24T00:41:35;8.77;;;6.37;;
36443;SDS011;24692;45.642;13.806;2023-04-24T00:44:01;7.77;;;5.77;;
36443;SDS011;24692;45.642;13.806;2023-04-24T00:46:27;10.03;;;6.23;;
36443;SDS011;24692;45.642;13.806;2023-04-24T00:48:53;12.43;;;6.27;;
36443;SDS011;24692;45.642;13.806;2023-04-24T00:51:21;9.67;;;5.83;;
36443;SDS011;24692;45.642;13.806;2023-04-24T00:53:46;7.90;;;5.63;;
36443;SDS011;24692;45.642;13.806;2023-04-24T00:56:12;9.03;;;6.10;;
36443;SDS011;24692;45.642;13.806;2023-04-24T00:58:38;10.43;;;6.37;;
36443;SDS011;24692;45.642;13.806;2023-04-24T01:01:05;9.73;;;6.30;;
36443;SDS011;24692;45.642;13.806;2023-04-24T01:03:32;10.10;;;6.37;;
36443;SDS011;24692;45.642;13.806;2023-04-24T01:05:58;9.43;;;6.07;;
36443;SDS011;24692;45.642;13.806;2023-04-24T01:08:24;10.13;;;6.10;;
36443;SDS011;24692;45.642;13.806;2023-04-24T01:10:53;9.30;;;6.10;;
36443;SDS011;24692;45.642;13.806;2023-04-24T01:13:19;10.83;;;6.13;;
36443;SDS011;24692;45.642;13.806;2023-04-24T01:15:45;8.53;;;6.20;;
36443;SDS011;24692;45.642;13.806;2023-04-24T01:18:12;10.97;;;6.20;;
36443;SDS011;24692;45.642;13.806;2023-04-24T01:20:41;10.13;;;6.07;;
36443;SDS011;24692;45.642;13.806;2023-04-24T01:23:09;9.17;;;6.53;;
36443;SDS011;24692;45.642;13.806;2023-04-24T01:25:35;9.60;;;6.13;;
36443;SDS011;24692;45.642;13.806;2023-04-24T01:28:01;11.63;;;6.47;;
36443;SDS011;24692;45.642;13.806;2023-04-24T01:30:27;8.70;;;6.00;;
36443;SDS011;24692;45.642;13.806;2023-04-24T01:32:53;8.00;;;6.80;;
36443;SDS011;24692;45.642;13.806;2023-04-24T01:35:20;7.47;;;5.97;;
36443;SDS011;24692;45.642;13.806;2023-04-24T01:37:45;10.67;;;6.00;;
36443;SDS011;24692;45.642;13.806;2023-04-24T01:40:11;9.30;;;6.07;;
36443;SDS011;24692;45.642;13.806;2023-04-24T01:42:37;9.10;;;5.77;;
36443;SDS011;24692;45.642;13.806;2023-04-24T01:45:03;9.87;;;6.40;;
36443;SDS011;24692;45.642;13.806;2023-04-24T01:47:33;7.83;;;5.47;;
36443;SDS011;24692;45.642;13.806;2023-04-24T01:49:59;10.33;;;6.70;;
36443;SDS011;24692;45.642;13.806;2023-04-24T01:52:25;8.63;;;6.23;;
36443;SDS011;24692;45.642;13.806;2023-04-24T01:54:50;11.77;;;6.20;;
36443;SDS011;24692;45.642;13.806;2023-04-24T01:57:17;8.47;;;5.77;;
36443;SDS011;24692;45.642;13.806;2023-04-24T01:59:43;11.83;;;6.40;;
36443;SDS011;24692;45.642;13.806;2023-04-24T02:02:09;9.47;;;6.00;;
36443;SDS011;24692;45.642;13.806;2023-04-24T02:04:34;8.43;;;6.17;;
36443;SDS011;24692;45.642;13.806;2023-04-24T02:07:00;9.87;;;6.17;;
36443;SDS011;24692;45.642;13.806;2023-04-24T02:09:26;8.97;;;5.70;;
36443;SDS011;24692;45.642;13.806;2023-04-24T02:11:51;9.83;;;6.07;;
36443;SDS011;24692;45.642;13.806;2023-04-24T02:14:17;7.57;;;5.93;;
36443;SDS011;24692;45.642;13.806;2023-04-24T02:16:42;7.57;;;6.27;;
36443;SDS011;24692;45.642;13.806;2023-04-24T02:19:08;9.33;;;5.90;;
36443;SDS011;24692;45.642;13.806;2023-04-24T02:21:34;9.07;;;6.30;;
36443;SDS011;24692;45.642;13.806;2023-04-24T02:24:00;12.20;;;6.80;;
36443;SDS011;24692;45.642;13.806;2023-04-24T02:26:26;10.63;;;6.23;;
36443;SDS011;24692;45.642;13.806;2023-04-24T02:28:52;6.90;;;5.97;;
36443;SDS011;24692;45.642;13.806;2023-04-24T02:31:18;9.80;;;6.20;;
36443;SDS011;24692;45.642;13.806;2023-04-24T02:33:43;8.57;;;5.87;;
36443;SDS011;24692;45.642;13.806;2023-04-24T02:36:09;9.80;;;6.60;;
36443;SDS011;24692;45.642;13.806;2023-04-24T02:38:35;7.27;;;5.47;;
36443;SDS011;24692;45.642;13.806;2023-04-24T02:41:00;11.33;;;6.37;;
36443;SDS011;24692;45.642;13.806;2023-04-24T02:43:27;9.50;;;6.07;;
36443;SDS011;24692;45.642;13.806;2023-04-24T02:45:53;11.63;;;6.27;;
36443;SDS011;24692;45.642;13.806;2023-04-24T02:48:18;10.43;;;6.10;;
36443;SDS011;24692;45.642;13.806;2023-04-24T02:50:45;11.83;;;5.43;;
36443;SDS011;24692;45.642;13.806;2023-04-24T02:53:11;10.10;;;5.17;;
36443;SDS011;24692;45.642;13.806;2023-04-24T02:55:37;9.47;;;5.67;;
36443;SDS011;24692;45.642;13.806;2023-04-24T02:58:02;6.93;;;5.43;;
36443;SDS011;24692;45.642;13.806;2023-04-24T03:00:28;11.60;;;5.87;;
36443;SDS011;24692;45.642;13.806;2023-04-24T03:02:54;11.33;;;5.80;;
36443;SDS011;24692;45.642;13.806;2023-04-24T03:05:20;11.83;;;6.60;;
36443;SDS011;24692;45.642;13.806;2023-04-24T03:07:46;9.37;;;6.90;;
36443;SDS011;24692;45.642;13.806;2023-04-24T03:10:11;13.77;;;6.40;;
36443;SDS011;24692;45.642;13.806;2023-04-24T03:12:37;9.83;;;6.50;;
36443;SDS011;24692;45.642;13.806;2023-04-24T03:15:03;12.30;;;6.83;;
36443;SDS011;24692;45.642;13.806;2023-04-24T03:17:29;10.63;;;6.70;;
36443;SDS011;24692;45.642;13.806;2023-04-24T03:19:54;13.43;;;7.50;;
36443;SDS011;24692;45.642;13.806;2023-04-24T03:22:20;12.90;;;6.73;;
36443;SDS011;24692;45.642;13.806;2023-04-24T03:24:45;12.30;;;7.33;;
36443;SDS011;24692;45.642;13.806;2023-04-24T03:27:11;11.73;;;7.50;;
36443;SDS011;24692;45.642;13.806;2023-04-24T03:29:37;12.40;;;7.27;;
36443;SDS011;24692;45.642;13.806;2023-04-24T03:32:02;13.20;;;7.17;;
36443;SDS011;24692;45.642;13.806;2023-04-24T03:34:28;11.07;;;7.40;;
36443;SDS011;24692;45.642;13.806;2023-04-24T03:36:54;11.77;;;7.23;;
36443;SDS011;24692;45.642;13.806;2023-04-24T03:39:19;11.23;;;7.37;;
36443;SDS011;24692;45.642;13.806;2023-04-24T03:41:45;13.43;;;6.13;;
36443;SDS011;24692;45.642;13.806;2023-04-24T03:44:10;13.33;;;6.70;;
36443;SDS011;24692;45.642;13.806;2023-04-24T03:46:36;11.77;;;6.30;;
36443;SDS011;24692;45.642;13.806;2023-04-24T03:49:02;10.30;;;6.60;;
36443;SDS011;24692;45.642;13.806;2023-04-24T03:51:27;10.73;;;6.47;;
36443;SDS011;24692;45.642;13.806;2023-04-24T03:53:55;9.57;;;5.87;;
36443;SDS011;24692;45.642;13.806;2023-04-24T03:56:20;9.93;;;5.70;;
36443;SDS011;24692;45.642;13.806;2023-04-24T03:58:46;12.47;;;6.87;;
36443;SDS011;24692;45.642;13.806;2023-04-24T04:01:12;10.53;;;6.07;;
36443;SDS011;24692;45.642;13.806;2023-04-24T04:03:38;13.80;;;6.40;;
36443;SDS011;24692;45.642;13.806;2023-04-24T04:06:03;9.37;;;6.60;;
36443;SDS011;24692;45.642;13.806;2023-04-24T04:08:30;8.33;;;5.90;;
36443;SDS011;24692;45.642;13.806;2023-04-24T04:10:56;10.30;;;6.37;;
36443;SDS011;24692;45.642;13.806;2023-04-24T04:13:21;13.37;;;6.77;;
36443;SDS011;24692;45.642;13.806;2023-04-24T04:15:47;7.93;;;5.83;;
36443;SDS011;24692;45.642;13.806;2023-04-24T04:18:13;9.50;;;6.10;;
36443;SDS011;24692;45.642;13.806;2023-04-24T04:20:38;8.37;;;5.40;;
36443;SDS011;24692;45.642;13.806;2023-04-24T04:23:04;8.83;;;5.30;;
36443;SDS011;24692;45.642;13.806;2023-04-24T04:25:29;10.73;;;6.20;;
36443;SDS011;24692;45.642;13.806;2023-04-24T04:27:55;10.70;;;5.70;;
36443;SDS011;24692;45.642;13.806;2023-04-24T04:30:23;9.40;;;6.00;;
36443;SDS011;24692;45.642;13.806;2023-04-24T04:32:48;9.03;;;5.60;;
36443;SDS011;24692;45.642;13.806;2023-04-24T04:35:14;8.90;;;6.20;;
36443;SDS011;24692;45.642;13.806;2023-04-24T04:37:40;9.53;;;5.93;;
36443;SDS011;24692;45.642;13.806;2023-04-24T04:40:05;9.40;;;5.40;;
36443;SDS011;24692;45.642;13.806;2023-04-24T04:42:32;9.00;;;5.73;;
36443;SDS011;24692;45.642;13.806;2023-04-24T04:45:01;8.93;;;6.07;;
36443;SDS011;24692;45.642;13.806;2023-04-24T04:47:27;8.60;;;5.63;;
36443;SDS011;24692;45.642;13.806;2023-04-24T04:49:53;8.43;;;5.80;;
36443;SDS011;24692;45.642;13.806;2023-04-24T04:52:19;10.97;;;5.93;;
36443;SDS011;24692;45.642;13.806;2023-04-24T04:54:49;10.67;;;6.50;;
36443;SDS011;24692;45.642;13.806;2023-04-24T04:57:15;14.73;;;6.87;;
36443;SDS011;24692;45.642;13.806;2023-04-24T04:59:41;12.70;;;6.20;;
36443;SDS011;24692;45.642;13.806;2023-04-24T05:02:07;11.90;;;6.73;;
36443;SDS011;24692;45.642;13.806;2023-04-24T05:04:32;8.43;;;5.90;;
36443;SDS011;24692;45.642;13.806;2023-04-24T05:06:58;14.30;;;6.30;;
36443;SDS011;24692;45.642;13.806;2023-04-24T05:09:23;8.97;;;6.03;;
36443;SDS011;24692;45.642;13.806;2023-04-24T05:11:52;10.50;;;6.10;;
36443;SDS011;24692;45.642;13.806;2023-04-24T05:14:18;10.67;;;6.30;;
36443;SDS011;24692;45.642;13.806;2023-04-24T05:16:44;10.27;;;6.70;;
36443;SDS011;24692;45.642;13.806;2023-04-24T05:19:10;13.07;;;6.40;;
36443;SDS011;24692;45.642;13.806;2023-04-24T05:21:36;12.13;;;6.67;;
36443;SDS011;24692;45.642;13.806;2023-04-24T05:24:02;10.27;;;6.80;;
36443;SDS011;24692;45.642;13.806;2023-04-24T05:26:28;10.07;;;7.13;;
36443;SDS011;24692;45.642;13.806;2023-04-24T05:28:53;12.87;;;7.27;;
36443;SDS011;24692;45.642;13.806;2023-04-24T05:31:19;12.27;;;7.17;;
36443;SDS011;24692;45.642;13.806;2023-04-24T05:33:45;13.80;;;7.20;;
36443;SDS011;24692;45.642;13.806;2023-04-24T05:36:10;10.63;;;7.10;;
36443;SDS011;24692;45.642;13.806;2023-04-24T05:38:36;9.90;;;6.53;;
36443;SDS011;24692;45.642;13.806;2023-04-24T05:41:02;12.47;;;6.60;;
36443;SDS011;24692;45.642;13.806;2023-04-24T05:43:27;10.93;;;6.60;;
36443;SDS011;24692;45.642;13.806;2023-04-24T05:45:53;11.40;;;6.47;;
36443;SDS011;24692;45.642;13.806;2023-04-24T05:48:19;10.50;;;6.50;;
36443;SDS011;24692;45.642;13.806;2023-04-24T05:50:45;14.50;;;7.10;;
36443;SDS011;24692;45.642;13.806;2023-04-24T05:53:12;11.07;;;6.27;;
36443;SDS011;24692;45.642;13.806;2023-04-24T05:55:37;12.67;;;6.60;;
36443;SDS011;24692;45.642;13.806;2023-04-24T05:58:03;11.83;;;6.97;;
36443;SDS011;24692;45.642;13.806;2023-04-24T06:00:29;9.03;;;6.27;;
36443;SDS011;24692;45.642;13.806;2023-04-24T06:02:55;14.37;;;6.50;;
36443;SDS011;24692;45.642;13.806;2023-04-24T06:05:21;11.80;;;7.23;;
36443;SDS011;24692;45.642;13.806;2023-04-24T06:07:47;9.97;;;6.67;;
36443;SDS011;24692;45.642;13.806;2023-04-24T06:10:13;14.17;;;6.27;;
36443;SDS011;24692;45.642;13.806;2023-04-24T06:12:39;12.87;;;6.67;;
36443;SDS011;24692;45.642;13.806;2023-04-24T06:15:04;11.30;;;6.33;;
36443;SDS011;24692;45.642;13.806;2023-04-24T06:17:31;11.07;;;6.37;;
36443;SDS011;24692;45.642;13.806;2023-04-24T06:19:57;12.20;;;6.57;;
36443;SDS011;24692;45.642;13.806;2023-04-24T06:22:22;11.33;;;6.30;;
36443;SDS011;24692;45.642;13.806;2023-04-24T06:24:48;13.27;;;6.50;;
36443;SDS011;24692;45.642;13.806;2023-04-24T06:27:14;10.10;;;6.50;;
36443;SDS011;24692;45.642;13.806;2023-04-24T06:29:39;9.73;;;6.20;;
36443;SDS011;24692;45.642;13.806;2023-04-24T06:32:05;19.93;;;7.23;;
36443;SDS011;24692;45.642;13.806;2023-04-24T06:34:31;14.07;;;6.90;;
36443;SDS011;24692;45.642;13.806;2023-04-24T06:36:58;13.47;;;7.50;;
36443;SDS011;24692;45.642;13.806;2023-04-24T06:39:24;9.50;;;6.80;;
36443;SDS011;24692;45.642;13.806;2023-04-24T06:41:50;8.87;;;6.67;;
36443;SDS011;24692;45.642;13.806;2023-04-24T06:44:15;9.90;;;7.07;;
36443;SDS011;24692;45.642;13.806;2023-04-24T06:46:41;10.23;;;7.90;;
36443;SDS011;24692;45.642;13.806;2023-04-24T06:49:07;12.23;;;7.90;;
36443;SDS011;24692;45.642;13.806;2023-04-24T06:51:33;15.93;;;7.90;;
36443;SDS011;24692;45.642;13.806;2023-04-24T06:53:58;14.53;;;8.30;;
36443;SDS011;24692;45.642;13.806;2023-04-24T06:56:24;15.90;;;8.70;;
36443;SDS011;24692;45.642;13.806;2023-04-24T06:58:51;10.27;;;8.13;;
36443;SDS011;24692;45.642;13.806;2023-04-24T07:01:17;12.17;;;7.67;;
36443;SDS011;24692;45.642;13.806;2023-04-24T07:03:42;11.60;;;7.87;;
36443;SDS011;24692;45.642;13.806;2023-04-24T07:06:08;12.53;;;7.47;;
36443;SDS011;24692;45.642;13.806;2023-04-24T07:08:36;10.70;;;6.87;;
36443;SDS011;24692;45.642;13.806;2023-04-24T07:11:02;12.27;;;7.43;;
36443;SDS011;24692;45.642;13.806;2023-04-24T07:13:28;15.37;;;7.73;;
36443;SDS011;24692;45.642;13.806;2023-04-24T07:15:54;12.30;;;7.00;;
36443;SDS011;24692;45.642;13.806;2023-04-24T07:18:21;10.43;;;6.90;;
36443;SDS011;24692;45.642;13.806;2023-04-24T07:20:46;15.57;;;7.37;;
36443;SDS011;24692;45.642;13.806;2023-04-24T07:23:12;12.63;;;7.50;;
36443;SDS011;24692;45.642;13.806;2023-04-24T07:25:38;11.70;;;8.00;;
36443;SDS011;24692;45.642;13.806;2023-04-24T07:28:04;12.33;;;7.83;;
36443;SDS011;24692;45.642;13.806;2023-04-24T07:30:30;10.73;;;6.97;;
36443;SDS011;24692;45.642;13.806;2023-04-24T07:32:58;13.73;;;7.40;;
36443;SDS011;24692;45.642;13.806;2023-04-24T07:35:24;13.07;;;7.53;;
36443;SDS011;24692;45.642;13.806;2023-04-24T07:37:51;12.67;;;7.00;;
36443;SDS011;24692;45.642;13.806;2023-04-24T07:40:20;15.47;;;7.57;;
36443;SDS011;24692;45.642;13.806;2023-04-24T07:42:46;10.83;;;7.80;;
36443;SDS011;24692;45.642;13.806;2023-04-24T07:45:13;14.77;;;7.63;;
36443;SDS011;24692;45.642;13.806;2023-04-24T07:47:40;13.50;;;8.30;;
36443;SDS011;24692;45.642;13.806;2023-04-24T07:50:08;13.73;;;8.37;;
36443;SDS011;24692;45.642;13.806;2023-04-24T07:52:35;15.37;;;8.67;;
36443;SDS011;24692;45.642;13.806;2023-04-24T07:55:01;12.23;;;8.53;;
36443;SDS011;24692;45.642;13.806;2023-04-24T07:57:27;14.93;;;8.57;;
36443;SDS011;24692;45.642;13.806;2023-04-24T07:59:53;13.13;;;7.97;;
36443;SDS011;24692;45.642;13.806;2023-04-24T08:02:18;16.00;;;8.73;;
36443;SDS011;24692;45.642;13.806;2023-04-24T08:04:46;11.47;;;7.77;;
36443;SDS011;24692;45.642;13.806;2023-04-24T08:07:12;11.13;;;7.17;;
36443;SDS011;24692;45.642;13.806;2023-04-24T08:09:38;12.60;;;7.77;;
36443;SDS011;24692;45.642;13.806;2023-04-24T08:12:03;10.80;;;7.20;;
36443;SDS011;24692;45.642;13.806;2023-04-24T08:14:29;11.97;;;8.03;;
36443;SDS011;24692;45.642;13.806;2023-04-24T08:16:55;12.83;;;7.63;;
36443;SDS011;24692;45.642;13.806;2023-04-24T08:19:25;11.00;;;7.93;;
36443;SDS011;24692;45.642;13.806;2023-04-24T08:21:51;10.80;;;6.97;;
36443;SDS011;24692;45.642;13.806;2023-04-24T08:24:16;12.27;;;7.70;;
36443;SDS011;24692;45.642;13.806;2023-04-24T08:26:42;11.00;;;7.33;;
36443;SDS011;24692;45.642;13.806;2023-04-24T08:29:08;11.60;;;7.10;;
36443;SDS011;24692;45.642;13.806;2023-04-24T08:31:33;8.40;;;6.30;;
36443;SDS011;24692;45.642;13.806;2023-04-24T08:34:00;8.80;;;7.17;;
36443;SDS011;24692;45.642;13.806;2023-04-24T08:36:26;10.73;;;6.97;;
36443;SDS011;24692;45.642;13.806;2023-04-24T08:38:52;11.00;;;7.23;;
36443;SDS011;24692;45.642;13.806;2023-04-24T08:41:18;9.80;;;6.80;;
36443;SDS011;24692;45.642;13.806;2023-04-24T08:43:47;8.77;;;6.30;;
36443;SDS011;24692;45.642;13.806;2023-04-24T08:46:13;11.83;;;7.27;;
36443;SDS011;24692;45.642;13.806;2023-04-24T08:48:41;7.80;;;5.20;;
36443;SDS011;24692;45.642;13.806;2023-04-24T08:51:07;7.20;;;5.37;;
36443;SDS011;24692;45.642;13.806;2023-04-24T08:53:34;6.30;;;4.87;;
36443;SDS011;24692;45.642;13.806;2023-04-24T08:56:01;7.30;;;5.53;;
36443;SDS011;24692;45.642;13.806;2023-04-24T08:58:27;5.93;;;4.37;;
36443;SDS011;24692;45.642;13.806;2023-04-24T09:00:54;7.50;;;5.10;;
36443;SDS011;24692;45.642;13.806;2023-04-24T09:03:20;9.50;;;5.70;;
36443;SDS011;24692;45.642;13.806;2023-04-24T09:05:47;6.57;;;4.70;;
36443;SDS011;24692;45.642;13.806;2023-04-24T09:08:16;7.60;;;5.47;;
36443;SDS011;24692;45.642;13.806;2023-04-24T09:10:43;8.73;;;5.13;;
36443;SDS011;24692;45.642;13.806;2023-04-24T09:13:09;6.30;;;5.07;;
36443;SDS011;24692;45.642;13.806;2023-04-24T09:15:39;9.20;;;4.70;;
36443;SDS011;24692;45.642;13.806;2023-04-24T09:18:06;6.57;;;4.70;;
36443;SDS011;24692;45.642;13.806;2023-04-24T09:20:32;8.93;;;5.57;;
36443;SDS011;24692;45.642;13.806;2023-04-24T09:22:57;7.37;;;5.13;;
36443;SDS011;24692;45.642;13.806;2023-04-24T09:25:32;7.30;;;4.70;;
36443;SDS011;24692;45.642;13.806;2023-04-24T09:28:04;5.70;;;4.77;;
36443;SDS011;24692;45.642;13.806;2023-04-24T09:30:31;9.83;;;4.90;;
36443;SDS011;24692;45.642;13.806;2023-04-24T09:33:09;5.13;;;4.43;;
36443;SDS011;24692;45.642;13.806;2023-04-24T09:35:40;6.63;;;4.60;;
36443;SDS011;24692;45.642;13.806;2023-04-24T09:38:07;6.83;;;4.30;;
36443;SDS011;24692;45.642;13.806;2023-04-24T09:40:34;6.87;;;4.40;;
36443;SDS011;24692;45.642;13.806;2023-04-24T09:43:00;6.10;;;4.30;;
36443;SDS011;24692;45.642;13.806;2023-04-24T09:45:29;5.43;;;4.27;;
36443;SDS011;24692;45.642;13.806;2023-04-24T09:48:01;6.33;;;3.93;;
36443;SDS011;24692;45.642;13.806;2023-04-24T09:50:27;5.93;;;3.93;;
36443;SDS011;24692;45.642;13.806;2023-04-24T09:52:57;6.73;;;3.70;;
36443;SDS011;24692;45.642;13.806;2023-04-24T09:55:24;5.40;;;3.60;;
36443;SDS011;24692;45.642;13.806;2023-04-24T10:00:29;6.10;;;3.97;;
36443;SDS011;24692;45.642;13.806;2023-04-24T10:02:56;7.20;;;3.47;;
36443;SDS011;24692;45.642;13.806;2023-04-24T10:05:24;5.77;;;3.57;;
36443;SDS011;24692;45.642;13.806;2023-04-24T10:07:55;4.27;;;3.50;;
36443;SDS011;24692;45.642;13.806;2023-04-24T10:10:22;4.97;;;3.90;;
36443;SDS011;24692;45.642;13.806;2023-04-24T10:12:48;5.63;;;3.87;;
36443;SDS011;24692;45.642;13.806;2023-04-24T10:15:15;4.97;;;3.80;;
36443;SDS011;24692;45.642;13.806;2023-04-24T10:17:46;4.33;;;3.57;;
36443;SDS011;24692;45.642;13.806;2023-04-24T10:20:22;6.03;;;3.60;;
36443;SDS011;24692;45.642;13.806;2023-04-24T10:22:49;6.13;;;3.53;;
36443;SDS011;24692;45.642;13.806;2023-04-24T10:25:21;4.37;;;3.47;;
36443;SDS011;24692;45.642;13.806;2023-04-24T10:27:49;4.70;;;3.67;;
36443;SDS011;24692;45.642;13.806;2023-04-24T10:30:17;5.27;;;3.23;;
36443;SDS011;24692;45.642;13.806;2023-04-24T10:32:43;13.83;;;3.87;;
36443;SDS011;24692;45.642;13.806;2023-04-24T10:35:10;6.60;;;3.30;;
36443;SDS011;24692;45.642;13.806;2023-04-24T10:37:40;6.13;;;3.90;;
36443;SDS011;24692;45.642;13.806;2023-04-24T10:40:10;6.40;;;3.53;;
36443;SDS011;24692;45.642;13.806;2023-04-24T10:42:39;5.70;;;3.80;;
36443;SDS011;24692;45.642;13.806;2023-04-24T10:45:18;5.77;;;3.03;;
36443;SDS011;24692;45.642;13.806;2023-04-24T10:48:31;4.73;;;3.40;;
36443;SDS011;24692;45.642;13.806;2023-04-24T10:53:22;4.97;;;3.20;;
36443;SDS011;24692;45.642;13.806;2023-04-24T10:56:12;5.67;;;3.70;;
36443;SDS011;24692;45.642;13.806;2023-04-24T10:58:59;4.87;;;3.43;;
36443;SDS011;24692;45.642;13.806;2023-04-24T11:01:31;4.10;;;3.13;;
36443;SDS011;24692;45.642;13.806;2023-04-24T11:03:58;4.90;;;3.30;;
36443;SDS011;24692;45.642;13.806;2023-04-24T11:06:31;6.50;;;3.80;;
36443;SDS011;24692;45.642;13.806;2023-04-24T11:09:05;5.20;;;3.67;;
36443;SDS011;24692;45.642;13.806;2023-04-24T11:11:33;6.80;;;3.60;;
36443;SDS011;24692;45.642;13.806;2023-04-24T11:16:28;6.57;;;3.87;;
36443;SDS011;24692;45.642;13.806;2023-04-24T11:19:01;5.37;;;3.80;;
36443;SDS011;24692;45.642;13.806;2023-04-24T11:21:32;5.73;;;4.20;;
36443;SDS011;24692;45.642;13.806;2023-04-24T11:24:22;6.53;;;3.90;;
36443;SDS011;24692;45.642;13.806;2023-04-24T11:32:38;5.33;;;3.90;;
36443;SDS011;24692;45.642;13.806;2023-04-24T11:35:06;4.67;;;3.70;;
36443;SDS011;24692;45.642;13.806;2023-04-24T11:37:43;4.60;;;3.40;;
36443;SDS011;24692;45.642;13.806;2023-04-24T11:40:17;5.63;;;3.80;;
36443;SDS011;24692;45.642;13.806;2023-04-24T11:42:48;5.20;;;3.70;;
36443;SDS011;24692;45.642;13.806;2023-04-24T11:45:25;3.87;;;2.87;;
36443;SDS011;24692;45.642;13.806;2023-04-24T11:47:52;5.87;;;3.43;;
36443;SDS011;24692;45.642;13.806;2023-04-24T11:50:19;4.23;;;3.50;;
36443;SDS011;24692;45.642;13.806;2023-04-24T11:52:47;7.30;;;4.17;;
36443;SDS011;24692;45.642;13.806;2023-04-24T11:57:43;7.47;;;4.13;;
36443;SDS011;24692;45.642;13.806;2023-04-24T12:00:17;5.40;;;4.00;;
36443;SDS011;24692;45.642;13.806;2023-04-24T12:05:30;6.67;;;4.20;;
36443;SDS011;24692;45.642;13.806;2023-04-24T12:07:56;6.97;;;4.30;;
36443;SDS011;24692;45.642;13.806;2023-04-24T12:10:22;9.73;;;4.07;;
36443;SDS011;24692;45.642;13.806;2023-04-24T12:12:50;9.47;;;4.33;;
36443;SDS011;24692;45.642;13.806;2023-04-24T12:15:17;7.87;;;4.83;;
36443;SDS011;24692;45.642;13.806;2023-04-24T12:17:44;7.50;;;4.73;;
36443;SDS011;24692;45.642;13.806;2023-04-24T12:20:10;6.13;;;4.03;;
36443;SDS011;24692;45.642;13.806;2023-04-24T12:22:47;6.10;;;4.40;;
36443;SDS011;24692;45.642;13.806;2023-04-24T12:25:19;4.97;;;4.30;;
36443;SDS011;24692;45.642;13.806;2023-04-24T12:27:51;6.60;;;4.33;;
36443;SDS011;24692;45.642;13.806;2023-04-24T12:30:33;6.50;;;4.70;;
36443;SDS011;24692;45.642;13.806;2023-04-24T12:33:01;5.93;;;4.20;;
36443;SDS011;24692;45.642;13.806;2023-04-24T12:35:28;6.17;;;4.07;;
36443;SDS011;24692;45.642;13.806;2023-04-24T12:38:04;7.30;;;4.13;;
36443;SDS011;24692;45.642;13.806;2023-04-24T12:40:33;7.77;;;5.03;;
36443;SDS011;24692;45.642;13.806;2023-04-24T12:42:59;5.83;;;4.27;;
36443;SDS011;24692;45.642;13.806;2023-04-24T12:45:25;7.63;;;4.53;;
36443;SDS011;24692;45.642;13.806;2023-04-24T12:47:52;9.07;;;4.70;;
36443;SDS011;24692;45.642;13.806;2023-04-24T12:50:18;5.87;;;3.47;;
36443;SDS011;24692;45.642;13.806;2023-04-24T12:52:44;5.47;;;3.73;;
36443;SDS011;24692;45.642;13.806;2023-04-24T12:55:10;6.23;;;3.63;;
36443;SDS011;24692;45.642;13.806;2023-04-24T12:57:37;4.00;;;3.00;;
36443;SDS011;24692;45.642;13.806;2023-04-24T13:00:05;4.87;;;2.30;;
36443;SDS011;24692;45.642;13.806;2023-04-24T13:02:32;2.63;;;2.00;;
36443;SDS011;24692;45.642;13.806;2023-04-24T13:04:58;4.73;;;1.80;;
36443;SDS011;24692;45.642;13.806;2023-04-24T13:07:25;2.43;;;1.50;;
36443;SDS011;24692;45.642;13.806;2023-04-24T13:09:51;7.53;;;1.73;;
36443;SDS011;24692;45.642;13.806;2023-04-24T13:12:17;4.17;;;1.60;;
36443;SDS011;24692;45.642;13.806;2023-04-24T13:14:43;2.90;;;1.90;;
36443;SDS011;24692;45.642;13.806;2023-04-24T13:17:09;3.83;;;2.23;;
36443;SDS011;24692;45.642;13.806;2023-04-24T13:19:38;3.40;;;1.90;;
36443;SDS011;24692;45.642;13.806;2023-04-24T13:22:06;5.50;;;2.50;;
36443;SDS011;24692;45.642;13.806;2023-04-24T13:24:34;3.47;;;2.13;;
36443;SDS011;24692;45.642;13.806;2023-04-24T13:26:59;4.70;;;2.80;;
36443;SDS011;24692;45.642;13.806;2023-04-24T13:29:25;4.83;;;2.30;;
36443;SDS011;24692;45.642;13.806;2023-04-24T13:31:52;3.70;;;2.00;;
36443;SDS011;24692;45.642;13.806;2023-04-24T13:34:20;3.07;;;2.20;;
36443;SDS011;24692;45.642;13.806;2023-04-24T13:36:46;3.50;;;2.00;;
36443;SDS011;24692;45.642;13.806;2023-04-24T13:39:12;7.53;;;2.20;;
36443;SDS011;24692;45.642;13.806;2023-04-24T13:41:37;3.33;;;1.60;;
36443;SDS011;24692;45.642;13.806;2023-04-24T13:44:04;3.57;;;2.00;;
36443;SDS011;24692;45.642;13.806;2023-04-24T13:46:31;2.27;;;1.57;;
36443;SDS011;24692;45.642;13.806;2023-04-24T13:48:57;3.53;;;1.40;;
36443;SDS011;24692;45.642;13.806;2023-04-24T13:51:23;3.23;;;1.77;;
36443;SDS011;24692;45.642;13.806;2023-04-24T13:53:52;4.63;;;2.17;;
36443;SDS011;24692;45.642;13.806;2023-04-24T13:56:18;1.80;;;1.60;;
36443;SDS011;24692;45.642;13.806;2023-04-24T13:58:43;1.50;;;1.40;;
36443;SDS011;24692;45.642;13.806;2023-04-24T14:01:09;5.67;;;1.60;;
36443;SDS011;24692;45.642;13.806;2023-04-24T14:03:36;1.60;;;1.50;;
36443;SDS011;24692;45.642;13.806;2023-04-24T14:06:02;2.00;;;1.10;;
36443;SDS011;24692;45.642;13.806;2023-04-24T14:08:28;2.83;;;1.43;;
36443;SDS011;24692;45.642;13.806;2023-04-24T14:10:53;1.83;;;1.60;;
36443;SDS011;24692;45.642;13.806;2023-04-24T14:13:19;2.27;;;1.67;;
36443;SDS011;24692;45.642;13.806;2023-04-24T14:15:45;1.60;;;1.50;;
36443;SDS011;24692;45.642;13.806;2023-04-24T14:18:11;2.00;;;1.77;;
36443;SDS011;24692;45.642;13.806;2023-04-24T14:20:37;3.20;;;1.90;;
36443;SDS011;24692;45.642;13.806;2023-04-24T14:23:03;1.73;;;1.60;;
36443;SDS011;24692;45.642;13.806;2023-04-24T14:25:29;1.70;;;1.57;;
36443;SDS011;24692;45.642;13.806;2023-04-24T14:27:55;3.23;;;1.60;;
36443;SDS011;24692;45.642;13.806;2023-04-24T14:30:21;3.93;;;1.93;;
36443;SDS011;24692;45.642;13.806;2023-04-24T14:32:46;1.77;;;1.47;;
36443;SDS011;24692;45.642;13.806;2023-04-24T14:35:13;2.57;;;1.90;;
36443;SDS011;24692;45.642;13.806;2023-04-24T14:37:39;2.20;;;1.83;;
36443;SDS011;24692;45.642;13.806;2023-04-24T14:40:06;3.00;;;1.70;;
36443;SDS011;24692;45.642;13.806;2023-04-24T14:42:33;5.13;;;1.60;;
36443;SDS011;24692;45.642;13.806;2023-04-24T14:45:00;4.43;;;1.60;;